Main page
METAR-TAF:

METAR-TAF

Airports :

Palma de Mallorca Airport

Palma de Mallorca, Spain

latitude: 39-33N, longitude: 002-44E, elevation: 4 m

Current weather observation

The report was made 24 minutes ago, at 19:30 UTC
Wind 4 kt from the Northeast, varying between North and East/Northeast
Temperature 16°C
Humidity 68%
Pressure 1016 hPa
Visibility 10 km or more
Few clouds at a height of 2000 ft

METAR: LEPA 281930Z 04004KT 350V070 9999 FEW020 16/10 Q1016 NOSIG

Time: 21:54 (19:54 UTC)

Forecast

The report was made 2 hours and 54 minutes ago, at 17:00 UTC
Forecast valid from 28 at 18 UTC to 29 at 18 UTC
Wind 5 kt from variable directions
Visibility 10 km or more
Few clouds at a height of 2000 ft
Becoming
from 29 at 08 UTC to 29 at 10 UTC
Wind 12 kt from the Southwest

TAF: LEPA 281700Z 2818/2918 VRB05KT 9999 FEW020 TX23/2913Z TN11/2906Z BECMG 2908/2910 22012KT

Weather observations and forecasts of more than 4000 airports (METAR and TAF reports).

The available stations are represented by yellow and red dots on the map.

Hover mouse over dot to see the name of the station.

Then click to see weather observations and forecasts.

To change the map : click on the green buttons with a black cross to zoom in, on the green button with a dash to zoom out, or on the green arrows for adjacent maps.


METAR-TAF: